createdAt,value
2024-03-12T00:00:24.873Z,47.67
2024-03-12T00:02:52.768Z,47.42
2024-03-12T00:05:21.580Z,45.45
2024-03-12T00:07:51.130Z,46.44
2024-03-12T00:10:22.461Z,46.79
2024-03-12T00:12:53.812Z,46.71
2024-03-12T00:15:27.115Z,48.83
2024-03-12T00:17:56.519Z,47.82
2024-03-12T00:20:35.222Z,47.67
2024-03-12T00:23:03.723Z,47.84
2024-03-12T00:25:32.154Z,47.42
2024-03-12T00:28:00.579Z,48.38
2024-03-12T00:30:29.693Z,48.00
2024-03-12T00:33:02.411Z,46.98
2024-03-12T00:35:34.309Z,47.09
2024-03-12T00:38:05.046Z,46.90
2024-03-12T00:40:35.658Z,47.51
2024-03-12T00:43:10.172Z,47.47
2024-03-12T00:45:43.088Z,48.56
2024-03-12T00:48:17.253Z,48.12
2024-03-12T00:50:47.654Z,48.63
2024-03-12T00:53:15.610Z,47.51
2024-03-12T00:55:48.981Z,47.94
2024-03-12T00:58:17.400Z,47.75
2024-03-12T01:00:47.184Z,49.26
2024-03-12T01:03:15.291Z,46.19
2024-03-12T01:05:44.270Z,46.09
2024-03-12T01:08:13.610Z,46.77
2024-03-12T01:10:41.842Z,47.37
2024-03-12T01:13:13.015Z,48.11
2024-03-12T01:15:41.852Z,48.62
2024-03-12T01:18:10.363Z,47.27
2024-03-12T01:20:38.479Z,48.82
2024-03-12T01:23:07.614Z,47.58
2024-03-12T01:25:37.825Z,46.72
2024-03-12T01:28:08.425Z,46.65
2024-03-12T01:30:38.465Z,45.93
2024-03-12T01:33:07.684Z,46.07
2024-03-12T01:35:41.076Z,45.29
2024-03-12T01:38:11.890Z,47.30
2024-03-12T01:40:40.913Z,45.49
2024-03-12T01:43:09.477Z,44.58
2024-03-12T01:45:38.314Z,45.60
2024-03-12T01:48:10.292Z,45.87
2024-03-12T01:50:40.940Z,47.15
2024-03-12T01:53:09.959Z,47.89
2024-03-12T01:55:41.687Z,48.59
2024-03-12T01:58:20.092Z,48.72
2024-03-12T02:00:48.698Z,48.11
2024-03-12T02:03:20.505Z,47.50
2024-03-12T02:05:49.072Z,46.85
2024-03-12T02:08:18.745Z,48.63
2024-03-12T02:10:47.452Z,48.07
2024-03-12T02:13:16.581Z,48.39
2024-03-12T02:15:44.658Z,50.39
2024-03-12T02:18:12.276Z,50.14
2024-03-12T02:20:40.322Z,49.43
2024-03-12T02:23:08.146Z,49.52
2024-03-12T02:25:36.608Z,50.16
2024-03-12T02:28:04.749Z,51.54
2024-03-12T02:30:32.996Z,49.86
2024-03-12T02:33:01.234Z,51.29
2024-03-12T02:35:28.684Z,49.95
2024-03-12T02:37:56.645Z,51.45
2024-03-12T02:40:24.223Z,50.58
2024-03-12T02:42:51.771Z,51.15
2024-03-12T02:45:22.510Z,49.37
2024-03-12T02:47:51.366Z,50.66
2024-03-12T02:50:19.854Z,51.24
2024-03-12T02:52:47.783Z,49.41
2024-03-12T02:55:15.962Z,50.96
2024-03-12T02:57:43.733Z,49.05
2024-03-12T03:00:16.305Z,49.07
2024-03-12T03:02:45.717Z,48.76
2024-03-12T03:05:14.810Z,47.46
2024-03-12T03:07:43.797Z,49.14
2024-03-12T03:10:13.738Z,48.86
2024-03-12T03:12:43.464Z,49.83
2024-03-12T03:15:15.109Z,49.54
2024-03-12T03:17:44.717Z,49.97
2024-03-12T03:20:13.654Z,50.05
2024-03-12T03:22:41.506Z,50.45
2024-03-12T03:25:13.600Z,50.31
2024-03-12T03:27:41.626Z,50.93
2024-03-12T03:30:11.562Z,50.88
2024-03-12T03:32:40.819Z,50.79
2024-03-12T03:35:08.906Z,50.11
2024-03-12T03:37:37.014Z,52.23
2024-03-12T03:40:06.190Z,50.72
2024-03-12T03:42:34.388Z,50.52
2024-03-12T03:45:02.662Z,50.66
2024-03-12T03:47:36.424Z,50.07
2024-03-12T03:50:09.276Z,50.67
2024-03-12T03:52:41.645Z,50.78
2024-03-12T03:55:10.912Z,49.09
2024-03-12T03:57:38.896Z,50.83
2024-03-12T04:00:14.484Z,49.85
2024-03-12T04:02:45.002Z,50.25
2024-03-12T04:05:13.673Z,49.80
2024-03-12T04:07:42.564Z,50.35
2024-03-12T04:10:14.792Z,50.37
2024-03-12T04:12:48.649Z,49.79
2024-03-12T04:15:16.408Z,51.10
2024-03-12T04:17:45.800Z,49.33
2024-03-12T04:20:14.282Z,47.34
2024-03-12T04:22:45.010Z,48.39
2024-03-12T04:25:14.264Z,48.11
2024-03-12T04:27:42.593Z,48.26
2024-03-12T04:30:11.335Z,50.06
2024-03-12T04:32:40.840Z,47.63
2024-03-12T04:35:14.299Z,47.00
2024-03-12T04:37:42.700Z,46.88
2024-03-12T04:40:13.026Z,46.35
2024-03-12T04:42:41.501Z,46.25
2024-03-12T04:45:10.095Z,45.02
2024-03-12T04:47:43.254Z,45.91
2024-03-12T04:50:13.549Z,46.23
2024-03-12T04:52:45.561Z,47.26
2024-03-12T04:55:14.968Z,45.71
2024-03-12T04:57:42.761Z,44.72
2024-03-12T05:00:20.651Z,45.73
2024-03-12T05:02:50.986Z,45.28
2024-03-12T05:05:19.810Z,45.22
2024-03-12T05:07:48.229Z,44.62
2024-03-12T05:10:16.079Z,44.58
2024-03-12T05:12:46.954Z,44.50
2024-03-12T05:15:14.820Z,43.83
2024-03-12T05:17:42.737Z,44.19
2024-03-12T05:20:19.620Z,43.43
2024-03-12T05:22:48.309Z,42.94
2024-03-12T05:25:28.372Z,43.28
2024-03-12T05:27:57.129Z,43.12
2024-03-12T05:30:25.114Z,43.55
2024-03-12T05:32:55.506Z,43.59
2024-03-12T05:35:24.391Z,43.14
2024-03-12T05:38:05.001Z,42.97
2024-03-12T05:41:07.264Z,42.29
2024-03-12T05:43:55.092Z,42.15
2024-03-12T05:46:49.011Z,42.11
2024-03-12T05:49:17.261Z,41.25
2024-03-12T05:51:45.495Z,41.24
2024-03-12T05:54:12.872Z,40.37
2024-03-12T05:56:41.028Z,40.50
2024-03-12T05:59:08.997Z,39.46
2024-03-12T06:01:36.999Z,40.19
2024-03-12T06:04:06.439Z,40.33
2024-03-12T06:06:34.441Z,40.38
2024-03-12T06:09:02.487Z,40.52
2024-03-12T06:11:31.385Z,39.39
2024-03-12T06:14:02.189Z,39.53
2024-03-12T06:16:31.749Z,40.02
2024-03-12T06:18:59.832Z,38.39
2024-03-12T06:21:27.842Z,39.38
2024-03-12T06:23:55.569Z,39.04
2024-03-12T06:26:23.872Z,39.98
2024-03-12T06:28:51.781Z,37.09
2024-03-12T06:31:20.397Z,37.41
2024-03-12T06:33:48.176Z,37.29
2024-03-12T06:36:17.028Z,37.61
2024-03-12T06:38:45.305Z,38.79
2024-03-12T06:41:12.851Z,36.18
2024-03-12T06:43:42.440Z,38.74
2024-03-12T06:46:13.464Z,38.29
2024-03-12T06:48:43.107Z,35.99
2024-03-12T06:51:12.197Z,37.72
2024-03-12T06:53:39.736Z,38.11
2024-03-12T06:56:08.667Z,37.38
2024-03-12T06:58:40.652Z,36.42
2024-03-12T07:01:11.315Z,36.13
2024-03-12T07:03:41.488Z,37.30
2024-03-12T07:06:09.471Z,36.76
2024-03-12T07:08:40.462Z,36.05
2024-03-12T07:11:09.317Z,35.85
2024-03-12T07:13:41.741Z,35.85
2024-03-12T07:16:11.546Z,36.66
2024-03-12T07:18:39.957Z,36.76
2024-03-12T07:21:07.662Z,33.50
2024-03-12T07:23:36.345Z,34.30
2024-03-12T07:26:04.326Z,34.31
2024-03-12T07:28:32.373Z,31.29
2024-03-12T07:31:00.263Z,33.31
2024-03-12T07:33:28.891Z,34.60
2024-03-12T07:35:56.663Z,33.92
2024-03-12T07:38:25.694Z,30.73
2024-03-12T07:40:53.692Z,33.43
2024-03-12T07:43:21.902Z,33.05
2024-03-12T07:45:49.679Z,30.31
2024-03-12T07:48:17.462Z,32.69
2024-03-12T07:50:45.598Z,30.77
2024-03-12T07:53:14.030Z,32.24
2024-03-12T07:55:43.948Z,30.63
2024-03-12T07:58:12.622Z,33.78
2024-03-12T08:00:40.648Z,30.55
2024-03-12T08:03:08.959Z,33.13
2024-03-12T08:05:37.536Z,34.12
2024-03-12T08:08:07.795Z,33.51
2024-03-12T08:10:35.636Z,29.31
2024-03-12T08:13:03.458Z,30.45
2024-03-12T08:15:31.151Z,32.41
2024-03-12T08:18:06.150Z,28.50
2024-03-12T08:20:40.994Z,32.80
2024-03-12T08:23:08.632Z,28.90
2024-03-12T08:25:49.946Z,32.49
2024-03-12T08:28:23.071Z,32.24
2024-03-12T08:30:51.212Z,28.79
2024-03-12T08:33:20.600Z,29.02
2024-03-12T08:35:48.291Z,30.56
2024-03-12T08:38:16.473Z,30.39
2024-03-12T08:40:44.598Z,31.03
2024-03-12T08:43:13.558Z,26.96
2024-03-12T08:45:41.321Z,27.29
2024-03-12T08:48:09.133Z,30.61
2024-03-12T08:50:37.144Z,31.08
2024-03-12T08:53:05.573Z,31.08
2024-03-12T08:55:33.658Z,30.63
2024-03-12T08:58:01.431Z,29.20
2024-03-12T09:00:30.409Z,30.65
2024-03-12T09:03:01.126Z,30.38
2024-03-12T09:05:28.751Z,30.40
2024-03-12T09:07:56.674Z,27.76
2024-03-12T09:10:24.379Z,27.79
2024-03-12T09:12:51.868Z,28.70
2024-03-12T09:15:21.740Z,28.31
2024-03-12T09:17:51.143Z,28.91
2024-03-12T09:20:18.762Z,27.99
2024-03-12T09:22:46.417Z,24.77
2024-03-12T09:25:15.785Z,28.74
2024-03-12T09:27:48.052Z,27.04
2024-03-12T09:30:18.523Z,27.87
2024-03-12T09:32:46.302Z,25.54
2024-03-12T09:35:14.071Z,26.53
2024-03-12T09:37:42.080Z,26.96
2024-03-12T09:40:13.222Z,25.74
2024-03-12T09:42:45.907Z,28.08
2024-03-12T09:45:13.963Z,28.52
2024-03-12T09:47:43.716Z,26.75
2024-03-12T09:50:13.452Z,24.21
2024-03-12T09:52:41.615Z,26.26
2024-03-12T09:55:12.982Z,25.43
2024-03-12T09:57:46.321Z,27.20
2024-03-12T10:00:20.721Z,24.94
2024-03-12T10:02:49.701Z,26.56
2024-03-12T10:05:24.697Z,26.27
2024-03-12T10:08:15.151Z,24.39
2024-03-12T10:10:48.092Z,25.25
2024-03-12T10:13:18.159Z,23.46
2024-03-12T10:16:05.336Z,23.27
2024-03-12T10:18:40.662Z,24.74
2024-03-12T10:21:08.983Z,19.48
2024-03-12T10:23:41.649Z,20.53
2024-03-12T10:26:18.250Z,22.42
2024-03-12T10:28:47.306Z,23.71
2024-03-12T10:31:16.459Z,24.59
2024-03-12T10:33:52.497Z,24.00
2024-03-12T10:36:34.508Z,19.22
2024-03-12T10:39:08.265Z,21.33
2024-03-12T10:41:36.390Z,20.73
2024-03-12T10:44:09.071Z,24.23
2024-03-12T10:46:37.829Z,24.75
2024-03-12T10:49:11.607Z,22.13
2024-03-12T10:51:44.401Z,19.42
2024-03-12T10:54:15.724Z,22.50
2024-03-12T10:56:49.540Z,22.04
2024-03-12T10:59:20.231Z,19.95
2024-03-12T11:01:49.716Z,21.01
2024-03-12T11:04:18.836Z,19.19
2024-03-12T11:06:49.686Z,19.81
2024-03-12T11:09:23.487Z,23.00
2024-03-12T11:11:51.504Z,19.53
2024-03-12T11:14:19.376Z,21.69
2024-03-12T11:16:47.590Z,22.52
2024-03-12T11:19:20.685Z,22.18
2024-03-12T11:21:51.226Z,22.50
2024-03-12T11:24:44.881Z,17.77
2024-03-12T11:27:26.661Z,18.92
2024-03-12T11:30:09.991Z,18.43
2024-03-12T11:32:41.145Z,17.10
2024-03-12T11:35:31.644Z,16.87
2024-03-12T11:38:01.999Z,18.30
2024-03-12T11:40:41.293Z,19.51
2024-03-12T11:43:18.362Z,20.28
2024-03-12T11:45:49.049Z,17.36
2024-03-12T11:48:22.027Z,17.94
2024-03-12T11:50:56.209Z,18.70
2024-03-12T11:53:24.811Z,18.28
2024-03-12T11:56:09.264Z,14.40
2024-03-12T11:58:48.429Z,18.85
2024-03-12T12:01:21.860Z,16.63
2024-03-12T12:04:00.944Z,14.89
2024-03-12T12:06:29.487Z,16.63
2024-03-12T12:09:00.803Z,16.78
2024-03-12T12:11:30.132Z,17.94
2024-03-12T12:14:16.493Z,17.41
2024-03-12T12:16:44.547Z,17.34
2024-03-12T12:19:18.704Z,17.08
2024-03-12T12:21:53.676Z,16.46
2024-03-12T12:24:26.621Z,15.04
2024-03-12T12:26:57.625Z,14.95
2024-03-12T12:29:30.401Z,16.45
2024-03-12T12:31:59.448Z,16.21
2024-03-12T12:34:30.016Z,15.52
2024-03-12T12:36:58.835Z,16.59
2024-03-12T12:39:36.675Z,14.69
2024-03-12T12:42:11.441Z,13.61
2024-03-12T12:44:38.969Z,15.92
2024-03-12T12:47:07.026Z,15.45
2024-03-12T12:49:36.694Z,15.82
2024-03-12T12:52:05.442Z,15.40
2024-03-12T12:54:34.626Z,15.94
2024-03-12T12:57:03.053Z,15.63
2024-03-12T12:59:36.150Z,14.23
2024-03-12T13:02:15.045Z,13.52
2024-03-12T13:04:42.863Z,14.28
2024-03-12T13:07:10.933Z,12.27
2024-03-12T13:09:38.719Z,15.17
2024-03-12T13:12:11.003Z,13.03
2024-03-12T13:14:38.904Z,15.11
2024-03-12T13:17:10.534Z,14.83
2024-03-12T13:19:38.424Z,14.63
2024-03-12T13:22:10.420Z,12.49
2024-03-12T13:24:43.615Z,14.76
2024-03-12T13:27:11.659Z,14.61
2024-03-12T13:29:39.568Z,13.41
2024-03-12T13:32:07.642Z,15.51
2024-03-12T13:34:37.240Z,13.28
2024-03-12T13:37:07.965Z,14.90
2024-03-12T13:39:35.958Z,16.49
2024-03-12T13:42:06.880Z,17.11
2024-03-12T13:44:34.656Z,17.58
2024-03-12T13:47:04.563Z,17.95
2024-03-12T13:49:32.897Z,16.84
2024-03-12T13:52:01.471Z,17.98
2024-03-12T13:54:29.253Z,18.54
2024-03-12T13:56:57.317Z,19.60
2024-03-12T13:59:25.467Z,19.32
2024-03-12T14:01:54.374Z,20.22
2024-03-12T14:04:22.734Z,20.25
2024-03-12T14:06:50.379Z,19.70
2024-03-12T14:09:18.888Z,20.37
2024-03-12T14:11:49.293Z,20.63
2024-03-12T14:14:17.453Z,20.40
2024-03-12T14:16:48.096Z,20.77
2024-03-12T14:19:15.870Z,20.73
2024-03-12T14:21:43.583Z,21.11
2024-03-12T14:24:11.830Z,20.93
2024-03-12T14:26:39.479Z,21.49
2024-03-12T14:29:08.080Z,21.55
2024-03-12T14:31:35.801Z,21.44
2024-03-12T14:34:05.708Z,21.70
2024-03-12T14:36:33.626Z,21.54
2024-03-12T14:39:01.297Z,22.27
2024-03-12T14:41:29.407Z,21.65
2024-03-12T14:43:58.606Z,21.67
2024-03-12T14:46:26.609Z,22.12
2024-03-12T14:48:56.465Z,22.20
2024-03-12T14:51:24.634Z,23.06
2024-03-12T14:53:52.501Z,23.09
2024-03-12T14:56:20.200Z,23.60
2024-03-12T14:58:48.178Z,23.16
2024-03-12T15:01:16.052Z,23.40
2024-03-12T15:03:45.086Z,23.79
2024-03-12T15:06:13.736Z,24.27
2024-03-12T15:08:41.806Z,23.78
2024-03-12T15:11:09.739Z,25.64
2024-03-12T15:13:38.086Z,23.65
2024-03-12T15:16:08.238Z,24.24
2024-03-12T15:18:36.734Z,24.51
2024-03-12T15:21:06.666Z,25.12
2024-03-12T15:23:34.460Z,24.52
2024-03-12T15:26:03.980Z,24.73
2024-03-12T15:28:31.642Z,25.31
2024-03-12T15:30:59.209Z,25.13
2024-03-12T15:33:33.171Z,25.47
2024-03-12T15:36:01.525Z,25.68
2024-03-12T15:38:30.004Z,26.15
2024-03-12T15:40:58.925Z,26.37
2024-03-12T15:43:26.784Z,26.31
2024-03-12T15:45:54.894Z,26.34
2024-03-12T15:48:24.884Z,26.80
2024-03-12T15:50:53.664Z,26.96
2024-03-12T15:53:21.464Z,26.89
2024-03-12T15:55:49.680Z,27.18
2024-03-12T15:58:17.771Z,27.66
2024-03-12T16:00:45.844Z,29.22
2024-03-12T16:03:13.714Z,28.00
2024-03-12T16:05:43.018Z,27.35
2024-03-12T16:08:10.819Z,27.91
2024-03-12T16:10:39.704Z,28.48
2024-03-12T16:13:08.735Z,27.80
2024-03-12T16:15:37.294Z,27.84
2024-03-12T16:18:07.122Z,28.59
2024-03-12T16:20:34.677Z,28.24
2024-03-12T16:23:02.407Z,28.70
2024-03-12T16:25:30.542Z,30.01
2024-03-12T16:27:58.416Z,28.39
2024-03-12T16:30:26.149Z,29.54
2024-03-12T16:32:55.034Z,29.01
2024-03-12T16:35:24.944Z,28.54
2024-03-12T16:37:52.760Z,28.90
2024-03-12T16:40:21.401Z,28.98
2024-03-12T16:42:49.884Z,29.62
2024-03-12T16:45:17.651Z,30.76
2024-03-12T16:47:45.513Z,28.93
2024-03-12T16:50:16.573Z,28.88
2024-03-12T16:52:44.906Z,28.86
2024-03-12T16:55:12.880Z,31.58
2024-03-12T16:57:40.983Z,30.28
2024-03-12T17:00:15.700Z,31.20
2024-03-12T17:02:43.923Z,29.63
2024-03-12T17:05:14.304Z,30.96
2024-03-12T17:07:44.065Z,31.88
2024-03-12T17:10:14.054Z,30.19
2024-03-12T17:12:42.752Z,30.99
2024-03-12T17:15:11.019Z,30.53
2024-03-12T17:17:42.978Z,31.16
2024-03-12T17:20:11.645Z,30.21
2024-03-12T17:22:41.879Z,30.39
2024-03-12T17:25:14.701Z,30.17
2024-03-12T17:27:43.238Z,31.52
2024-03-12T17:30:12.510Z,30.79
2024-03-12T17:32:42.116Z,31.81
2024-03-12T17:35:14.791Z,30.98
2024-03-12T17:37:45.119Z,31.43
2024-03-12T17:40:17.341Z,31.89
2024-03-12T17:42:47.121Z,31.48
2024-03-12T17:45:17.200Z,31.47
2024-03-12T17:47:49.549Z,31.57
2024-03-12T17:50:23.006Z,32.10
2024-03-12T17:52:58.692Z,32.73
2024-03-12T17:55:28.168Z,31.33
2024-03-12T17:57:56.671Z,31.58
2024-03-12T18:00:25.726Z,31.98
2024-03-12T18:02:56.448Z,31.61
2024-03-12T18:05:24.675Z,33.38
2024-03-12T18:07:54.964Z,33.40
2024-03-12T18:10:27.702Z,34.58
2024-03-12T18:12:56.427Z,33.46
2024-03-12T18:15:25.275Z,31.20
2024-03-12T18:17:53.712Z,31.04
2024-03-12T18:20:25.653Z,33.22
2024-03-12T18:22:54.556Z,32.73
2024-03-12T18:25:22.959Z,34.60
2024-03-12T18:27:57.501Z,32.51
2024-03-12T18:30:26.915Z,34.81
2024-03-12T18:32:55.815Z,34.17
2024-03-12T18:35:24.479Z,32.19
2024-03-12T18:37:55.277Z,32.36
2024-03-12T18:40:23.910Z,33.17
2024-03-12T18:42:52.864Z,32.77
2024-03-12T18:45:23.716Z,32.81
2024-03-12T18:47:52.413Z,33.11
2024-03-12T18:50:22.014Z,33.13
2024-03-12T18:52:50.147Z,32.63
2024-03-12T18:55:19.375Z,33.64
2024-03-12T18:57:47.660Z,32.68
2024-03-12T19:00:20.173Z,33.54
2024-03-12T19:02:50.086Z,34.41
2024-03-12T19:05:19.205Z,33.79
2024-03-12T19:07:51.875Z,33.93
2024-03-12T19:10:21.383Z,34.31
2024-03-12T19:12:50.758Z,34.23
2024-03-12T19:15:22.877Z,34.29
2024-03-12T19:17:52.475Z,34.56
2024-03-12T19:20:21.412Z,34.84
2024-03-12T19:22:51.955Z,34.88
2024-03-12T19:25:20.717Z,35.45
2024-03-12T19:27:50.470Z,35.39
2024-03-12T19:30:26.156Z,35.29
2024-03-12T19:32:54.591Z,33.88
2024-03-12T19:35:23.228Z,33.82
2024-03-12T19:37:51.215Z,35.35
2024-03-12T19:40:23.061Z,35.56
2024-03-12T19:42:53.693Z,34.92
2024-03-12T19:45:29.090Z,35.26
2024-03-12T19:47:58.044Z,38.72
2024-03-12T19:50:28.060Z,36.55
2024-03-12T19:52:56.828Z,35.87
2024-03-12T19:55:32.094Z,36.91
2024-03-12T19:58:02.035Z,35.54
2024-03-12T20:00:32.229Z,36.10
2024-03-12T20:03:03.617Z,36.42
2024-03-12T20:05:34.049Z,35.35
2024-03-12T20:08:03.475Z,34.89
2024-03-12T20:10:31.226Z,35.61
2024-03-12T20:12:59.842Z,36.57
2024-03-12T20:15:29.407Z,36.37
2024-03-12T20:17:57.236Z,35.27
2024-03-12T20:20:24.884Z,36.53
2024-03-12T20:22:53.006Z,37.03
2024-03-12T20:25:23.634Z,37.52
2024-03-12T20:27:55.187Z,36.15
2024-03-12T20:30:28.427Z,36.97
2024-03-12T20:33:00.122Z,37.71
2024-03-12T20:35:29.261Z,37.45
2024-03-12T20:37:57.202Z,38.83
2024-03-12T20:40:27.216Z,36.59
2024-03-12T20:43:00.403Z,38.53
2024-03-12T20:45:30.491Z,37.51
2024-03-12T20:47:59.678Z,37.69
2024-03-12T20:50:27.645Z,37.44
2024-03-12T20:52:56.128Z,36.54
2024-03-12T20:55:25.356Z,36.37
2024-03-12T20:57:53.654Z,37.58
2024-03-12T21:00:34.521Z,36.81
2024-03-12T21:03:02.642Z,35.97
2024-03-12T21:05:31.971Z,36.54
2024-03-12T21:08:00.082Z,36.79
2024-03-12T21:10:28.548Z,36.33
2024-03-12T21:12:57.255Z,35.98
2024-03-12T21:15:24.990Z,36.27
2024-03-12T21:17:54.531Z,36.97
2024-03-12T21:20:34.007Z,38.12
2024-03-12T21:23:05.081Z,37.06
2024-03-12T21:25:34.872Z,37.98
2024-03-12T21:28:02.914Z,36.49
2024-03-12T21:30:30.522Z,38.60
2024-03-12T21:32:58.794Z,39.14
2024-03-12T21:35:26.628Z,38.05
2024-03-12T21:37:54.530Z,37.63
2024-03-12T21:40:24.335Z,37.68
2024-03-12T21:42:54.875Z,37.65
2024-03-12T21:45:22.487Z,37.73
2024-03-12T21:47:51.260Z,36.97
2024-03-12T21:50:19.368Z,36.58
2024-03-12T21:52:47.264Z,37.03
2024-03-12T21:55:15.890Z,37.88
2024-03-12T21:57:45.315Z,37.42
2024-03-12T22:00:20.654Z,38.20
2024-03-12T22:02:50.071Z,39.51
2024-03-12T22:05:21.358Z,39.91
2024-03-12T22:07:52.156Z,40.63
2024-03-12T22:10:20.213Z,40.14
2024-03-12T22:12:48.792Z,41.98
2024-03-12T22:15:16.894Z,41.47
2024-03-12T22:17:46.152Z,41.59
2024-03-12T22:20:20.123Z,40.64
2024-03-12T22:22:49.249Z,41.80
2024-03-12T22:25:18.029Z,41.59
2024-03-12T22:27:50.209Z,40.01
2024-03-12T22:30:18.678Z,39.85
2024-03-12T22:32:47.551Z,39.17
2024-03-12T22:35:15.322Z,40.63
2024-03-12T22:37:44.956Z,40.11
2024-03-12T22:40:14.125Z,40.81
2024-03-12T22:42:42.708Z,40.37
2024-03-12T22:45:12.984Z,41.01
2024-03-12T22:47:41.583Z,40.96
2024-03-12T22:50:10.254Z,39.84
2024-03-12T22:52:38.208Z,41.23
2024-03-12T22:55:07.518Z,41.11
2024-03-12T22:57:40.063Z,40.47
2024-03-12T23:00:27.760Z,40.48
2024-03-12T23:03:03.062Z,42.59
2024-03-12T23:05:37.322Z,42.16
2024-03-12T23:08:07.048Z,41.22
2024-03-12T23:10:41.174Z,42.26
2024-03-12T23:13:11.477Z,43.25
2024-03-12T23:15:40.354Z,41.20
2024-03-12T23:18:10.938Z,42.01
2024-03-12T23:20:46.299Z,41.92
2024-03-12T23:23:15.371Z,42.51
2024-03-12T23:25:43.735Z,41.99
2024-03-12T23:28:12.377Z,41.71
2024-03-12T23:30:40.292Z,41.86
2024-03-12T23:33:09.701Z,41.56
2024-03-12T23:35:38.079Z,42.37
2024-03-12T23:38:06.994Z,43.21
2024-03-12T23:40:34.863Z,43.28
2024-03-12T23:43:02.639Z,41.42
2024-03-12T23:45:32.397Z,43.66
2024-03-12T23:48:04.258Z,43.34
2024-03-12T23:50:32.325Z,44.15
2024-03-12T23:53:00.428Z,43.63
2024-03-12T23:55:27.952Z,44.03
2024-03-12T23:57:55.701Z,42.83
